Time;durP1;ratioP1;P1;durP2;ratioP2;P2;SDS_P1;SDS_P2;PMS_P1;PMS_P2;Temp;Humidity;BMP_temperature;BMP_pressure;BME280_temperature;BME280_humidity;BME280_pressure;Samples;Min_cycle;Max_cycle;Signal;HPM_P1;HPM_P2
2023/12/09 00:01:30;;;;;;;13.50;7.15;;;;;;;;;;6117005;23;20018;-70
2023/12/09 00:03:56;;;;;;;10.85;6.20;;;;;;;;;;6090840;23;20358;-72
2023/12/09 00:06:22;;;;;;;13.90;7.03;;;;;;;;;;6089431;23;20083;-71
2023/12/09 00:08:50;;;;;;;12.05;7.32;;;;;;;;;;6117715;23;20005;-72
2023/12/09 00:11:15;;;;;;;18.55;9.10;;;;;;;;;;6116948;23;20460;-71
2023/12/09 00:13:41;;;;;;;13.30;8.05;;;;;;;;;;6116086;23;20092;-71
2023/12/09 00:16:09;;;;;;;10.85;6.63;;;;;;;;;;6117977;23;20065;-71
2023/12/09 00:18:35;;;;;;;12.27;7.43;;;;;;;;;;6117189;23;20434;-70
2023/12/09 00:21:00;;;;;;;12.30;7.50;;;;;;;;;;6116460;23;20445;-71
2023/12/09 00:23:26;;;;;;;9.98;6.60;;;;;;;;;;6116907;23;20017;-71
2023/12/09 00:25:52;;;;;;;10.55;6.72;;;;;;;;;;6117281;23;20028;-71
2023/12/09 00:28:18;;;;;;;12.35;6.70;;;;;;;;;;6117863;23;20470;-70
2023/12/09 00:30:44;;;;;;;9.48;6.10;;;;;;;;;;6092551;23;20038;-71
2023/12/09 00:33:10;;;;;;;20.38;9.45;;;;;;;;;;6091766;23;20018;-71
2023/12/09 00:35:36;;;;;;;13.65;9.10;;;;;;;;;;6118207;23;20097;-71
2023/12/09 00:38:02;;;;;;;10.90;6.93;;;;;;;;;;6117745;23;20333;-72
2023/12/09 00:40:28;;;;;;;13.43;8.05;;;;;;;;;;6118243;23;20022;-71
2023/12/09 00:42:53;;;;;;;12.07;6.95;;;;;;;;;;6118326;23;20461;-71
2023/12/09 00:45:20;;;;;;;13.60;8.38;;;;;;;;;;6119286;23;20384;-71
2023/12/09 00:47:46;;;;;;;13.52;8.30;;;;;;;;;;6117330;23;20073;-71
2023/12/09 00:50:12;;;;;;;14.80;7.40;;;;;;;;;;6118126;23;20429;-72
2023/12/09 00:52:37;;;;;;;14.27;8.70;;;;;;;;;;6119461;23;20482;-71
2023/12/09 00:55:05;;;;;;;13.05;7.70;;;;;;;;;;6067973;23;20080;-71
2023/12/09 00:57:31;;;;;;;11.60;7.28;;;;;;;;;;6119948;23;20044;-71
2023/12/09 00:59:56;;;;;;;11.18;7.22;;;;;;;;;;6093361;23;20017;-70
2023/12/09 01:02:22;;;;;;;12.82;7.38;;;;;;;;;;6120159;23;20017;-71
2023/12/09 01:04:48;;;;;;;12.52;7.25;;;;;;;;;;6117464;23;20475;-71
2023/12/09 01:07:14;;;;;;;21.30;8.65;;;;;;;;;;6119838;23;20010;-71
2023/12/09 01:09:39;;;;;;;17.45;8.02;;;;;;;;;;6092909;23;20014;-71
2023/12/09 01:12:05;;;;;;;11.50;6.82;;;;;;;;;;6119909;23;20024;-70
2023/12/09 01:14:31;;;;;;;13.20;6.95;;;;;;;;;;6118157;23;20108;-71
2023/12/09 01:16:57;;;;;;;13.98;8.07;;;;;;;;;;6118083;23;20401;-70
2023/12/09 01:19:23;;;;;;;11.95;6.97;;;;;;;;;;6118954;23;20619;-71
2023/12/09 01:21:48;;;;;;;13.43;7.47;;;;;;;;;;6119779;23;20018;-71
2023/12/09 01:24:14;;;;;;;13.02;7.68;;;;;;;;;;6081053;23;20334;-71
2023/12/09 01:26:40;;;;;;;11.73;7.70;;;;;;;;;;6123452;23;20010;-71
2023/12/09 01:29:07;;;;;;;10.98;7.07;;;;;;;;;;6101032;23;20010;-71
2023/12/09 01:31:33;;;;;;;13.75;7.88;;;;;;;;;;6125703;23;20078;-71
2023/12/09 01:33:58;;;;;;;14.70;8.23;;;;;;;;;;6119773;23;20006;-70
2023/12/09 01:36:25;;;;;;;16.70;7.90;;;;;;;;;;6119656;23;20084;-72
2023/12/09 01:38:51;;;;;;;13.30;8.00;;;;;;;;;;6118857;23;20028;-71
2023/12/09 01:41:16;;;;;;;13.98;7.88;;;;;;;;;;6118792;23;20017;-70
2023/12/09 01:43:47;;;;;;;14.43;7.88;;;;;;;;;;6119468;23;20021;-70
2023/12/09 01:46:14;;;;;;;14.65;8.00;;;;;;;;;;6118807;23;20096;-71
2023/12/09 01:48:40;;;;;;;14.98;7.95;;;;;;;;;;6119327;23;20006;-71
2023/12/09 01:51:07;;;;;;;13.75;7.95;;;;;;;;;;6119414;23;20018;-71
2023/12/09 01:53:35;;;;;;;12.73;7.55;;;;;;;;;;6117563;23;20040;-72
2023/12/09 01:56:03;;;;;;;13.07;7.80;;;;;;;;;;6117881;23;20014;-70
2023/12/09 01:58:30;;;;;;;12.23;7.43;;;;;;;;;;6119010;23;20073;-71
2023/12/09 02:00:56;;;;;;;14.13;8.65;;;;;;;;;;6119847;23;20022;-71
2023/12/09 02:03:22;;;;;;;14.82;7.55;;;;;;;;;;6119561;23;20010;-71
2023/12/09 02:05:48;;;;;;;15.15;8.25;;;;;;;;;;6119917;23;20013;-71
2023/12/09 02:08:15;;;;;;;14.00;8.07;;;;;;;;;;6092209;23;20084;-70
2023/12/09 02:10:42;;;;;;;15.18;8.57;;;;;;;;;;6120505;23;20017;-71
2023/12/09 02:13:13;;;;;;;13.82;7.47;;;;;;;;;;6120150;23;20018;-71
2023/12/09 02:15:45;;;;;;;14.13;7.85;;;;;;;;;;6119736;23;20013;-71
2023/12/09 02:18:12;;;;;;;14.40;8.07;;;;;;;;;;6118374;23;20053;-71
2023/12/09 02:20:38;;;;;;;15.25;8.60;;;;;;;;;;6119672;23;20013;-71
2023/12/09 02:23:07;;;;;;;14.07;8.40;;;;;;;;;;6115108;23;20030;-71
2023/12/09 02:25:34;;;;;;;14.80;8.52;;;;;;;;;;6124809;23;20010;-72
2023/12/09 02:28:05;;;;;;;15.38;8.57;;;;;;;;;;6125663;23;20013;-71
2023/12/09 02:30:37;;;;;;;15.43;8.65;;;;;;;;;;6125990;23;20002;-71
2023/12/09 02:33:07;;;;;;;13.93;8.63;;;;;;;;;;6126145;23;20021;-70
2023/12/09 02:35:37;;;;;;;14.85;8.38;;;;;;;;;;6126607;23;20017;-70
2023/12/09 02:38:04;;;;;;;14.43;8.18;;;;;;;;;;6125801;23;20085;-71
2023/12/09 02:40:31;;;;;;;13.25;7.90;;;;;;;;;;6099825;23;20022;-71
2023/12/09 02:42:57;;;;;;;15.07;8.05;;;;;;;;;;6125989;23;20069;-72
2023/12/09 02:45:23;;;;;;;20.02;8.57;;;;;;;;;;6129277;23;20021;-71
2023/12/09 02:47:49;;;;;;;14.32;8.57;;;;;;;;;;6126138;23;20014;-71
2023/12/09 02:50:15;;;;;;;12.60;7.60;;;;;;;;;;6125575;23;20017;-71
2023/12/09 02:52:41;;;;;;;15.15;8.95;;;;;;;;;;6125913;23;20085;-71
2023/12/09 02:55:08;;;;;;;15.90;8.60;;;;;;;;;;6125671;23;20026;-71
2023/12/09 02:57:33;;;;;;;16.27;9.25;;;;;;;;;;6099281;23;20016;-72
2023/12/09 02:59:59;;;;;;;16.00;8.93;;;;;;;;;;6125585;23;20038;-71
2023/12/09 03:02:25;;;;;;;16.58;9.15;;;;;;;;;;6124059;23;20017;-71
2023/12/09 03:04:51;;;;;;;20.80;8.90;;;;;;;;;;6125621;23;20006;-71
2023/12/09 03:07:20;;;;;;;14.65;9.10;;;;;;;;;;6127622;23;20069;-71
2023/12/09 03:09:49;;;;;;;16.00;9.27;;;;;;;;;;6128085;23;20013;-71
2023/12/09 03:12:15;;;;;;;15.90;9.07;;;;;;;;;;6125550;23;20548;-72
2023/12/09 03:14:41;;;;;;;15.85;8.95;;;;;;;;;;6125562;23;20013;-71
2023/12/09 03:17:07;;;;;;;17.10;9.18;;;;;;;;;;6126134;23;20093;-71
2023/12/09 03:19:33;;;;;;;14.85;9.00;;;;;;;;;;6098853;23;20041;-71
2023/12/09 03:21:59;;;;;;;19.30;8.63;;;;;;;;;;6125066;23;20014;-70
2023/12/09 03:24:25;;;;;;;17.42;9.43;;;;;;;;;;6125852;23;20400;-71
2023/12/09 03:26:51;;;;;;;19.42;9.02;;;;;;;;;;6101889;23;20045;-71
2023/12/09 03:29:18;;;;;;;14.35;8.65;;;;;;;;;;6125171;23;20037;-70
2023/12/09 03:31:44;;;;;;;13.82;7.63;;;;;;;;;;6124864;23;20432;-71
2023/12/09 03:34:10;;;;;;;17.30;8.82;;;;;;;;;;6125378;23;20025;-70
2023/12/09 03:36:35;;;;;;;25.15;11.90;;;;;;;;;;6125114;23;20453;-71
2023/12/09 03:39:01;;;;;;;16.30;9.18;;;;;;;;;;6124838;23;20161;-70
2023/12/09 03:41:28;;;;;;;16.67;9.25;;;;;;;;;;6124824;23;20149;-71
2023/12/09 03:43:54;;;;;;;16.30;8.40;;;;;;;;;;6124849;23;20037;-71
2023/12/09 03:46:19;;;;;;;15.13;9.07;;;;;;;;;;6124831;23;20006;-71
2023/12/09 03:48:45;;;;;;;19.50;9.30;;;;;;;;;;6124608;23;20061;-70
2023/12/09 03:51:11;;;;;;;17.00;10.10;;;;;;;;;;6124827;23;20014;-70
2023/12/09 03:53:37;;;;;;;15.15;8.95;;;;;;;;;;6124958;23;20038;-71
2023/12/09 03:56:03;;;;;;;15.63;9.20;;;;;;;;;;6124650;23;20084;-70
2023/12/09 03:58:29;;;;;;;21.25;10.57;;;;;;;;;;6124353;23;20010;-71
2023/12/09 04:00:54;;;;;;;20.13;10.07;;;;;;;;;;6124929;23;20463;-71
2023/12/09 04:03:20;;;;;;;20.08;9.93;;;;;;;;;;6124310;23;20005;-70
2023/12/09 04:05:46;;;;;;;21.42;9.70;;;;;;;;;;6124389;23;20018;-71
2023/12/09 04:08:12;;;;;;;23.73;9.13;;;;;;;;;;6124779;23;20010;-71
2023/12/09 04:10:38;;;;;;;21.48;10.02;;;;;;;;;;6123154;23;20397;-71
2023/12/09 04:13:04;;;;;;;23.40;10.30;;;;;;;;;;6123338;23;20041;-72
2023/12/09 04:15:30;;;;;;;21.83;9.25;;;;;;;;;;6125054;23;20042;-71
2023/12/09 04:17:56;;;;;;;26.90;9.80;;;;;;;;;;6124431;23;20018;-71
2023/12/09 04:20:22;;;;;;;19.83;11.07;;;;;;;;;;6123188;23;20025;-71
2023/12/09 04:22:48;;;;;;;24.33;10.95;;;;;;;;;;6124576;23;20041;-70
2023/12/09 04:25:14;;;;;;;22.08;10.10;;;;;;;;;;6124553;23;20341;-71
2023/12/09 04:27:39;;;;;;;23.80;11.50;;;;;;;;;;6124601;23;20037;-70
2023/12/09 04:30:06;;;;;;;20.92;9.75;;;;;;;;;;6124729;23;20065;-71
2023/12/09 04:32:32;;;;;;;28.48;11.25;;;;;;;;;;6126787;23;20044;-70
2023/12/09 04:34:59;;;;;;;30.08;11.32;;;;;;;;;;6126769;23;20025;-71
2023/12/09 04:37:25;;;;;;;25.60;10.35;;;;;;;;;;6127974;23;20380;-71
2023/12/09 04:39:51;;;;;;;15.43;9.07;;;;;;;;;;6126788;23;20065;-70
2023/12/09 04:42:18;;;;;;;19.40;9.68;;;;;;;;;;6126429;23;20009;-71
2023/12/09 04:44:43;;;;;;;18.92;9.60;;;;;;;;;;6126680;23;20427;-70
2023/12/09 04:47:09;;;;;;;15.52;8.88;;;;;;;;;;6126203;23;20173;-70
2023/12/09 04:49:35;;;;;;;19.73;9.93;;;;;;;;;;6126287;23;20068;-71
2023/12/09 04:52:04;;;;;;;16.38;9.68;;;;;;;;;;6126270;23;20079;-71
2023/12/09 04:54:30;;;;;;;20.55;10.10;;;;;;;;;;6126896;23;20006;-70
2023/12/09 04:56:56;;;;;;;18.33;9.23;;;;;;;;;;6126688;23;20021;-70
2023/12/09 04:59:23;;;;;;;17.67;9.50;;;;;;;;;;6100144;23;20014;-71
2023/12/09 05:01:49;;;;;;;18.02;10.25;;;;;;;;;;6126531;23;20014;-71
2023/12/09 05:04:16;;;;;;;17.80;9.55;;;;;;;;;;6126221;23;20088;-72
2023/12/09 05:06:43;;;;;;;18.05;9.50;;;;;;;;;;6125953;23;20456;-71
2023/12/09 05:09:10;;;;;;;19.38;9.02;;;;;;;;;;6125944;23;20002;-72
2023/12/09 05:11:36;;;;;;;17.92;9.20;;;;;;;;;;6126763;23;20335;-71
2023/12/09 05:14:02;;;;;;;17.88;10.02;;;;;;;;;;6130439;23;20455;-72
2023/12/09 05:16:28;;;;;;;15.48;9.15;;;;;;;;;;6128665;23;20010;-72
2023/12/09 05:18:54;;;;;;;15.82;9.40;;;;;;;;;;6122862;23;20014;-72
2023/12/09 05:21:20;;;;;;;17.13;8.23;;;;;;;;;;6124752;23;20017;-72
2023/12/09 05:23:46;;;;;;;15.82;9.00;;;;;;;;;;6121049;23;20335;-71
2023/12/09 05:26:23;;;;;;;15.15;8.80;;;;;;;;;;6120130;23;20006;-72
2023/12/09 05:28:50;;;;;;;20.90;11.07;;;;;;;;;;6125334;23;20041;-71
2023/12/09 05:31:16;;;;;;;18.65;9.80;;;;;;;;;;6123249;23;20014;-71
2023/12/09 05:33:42;;;;;;;16.23;9.68;;;;;;;;;;6100153;23;20445;-71
2023/12/09 05:36:08;;;;;;;14.75;9.05;;;;;;;;;;6125601;23;20017;-70
2023/12/09 05:38:34;;;;;;;18.60;9.73;;;;;;;;;;6125429;23;20022;-71
2023/12/09 05:41:00;;;;;;;16.48;9.35;;;;;;;;;;6099837;23;20448;-72
2023/12/09 05:43:27;;;;;;;17.83;8.60;;;;;;;;;;6125107;23;20021;-71
2023/12/09 05:45:54;;;;;;;17.08;8.98;;;;;;;;;;6125631;23;20017;-71
2023/12/09 05:48:21;;;;;;;18.55;9.73;;;;;;;;;;6125338;23;20349;-71
2023/12/09 05:50:46;;;;;;;17.02;9.50;;;;;;;;;;6099888;23;20025;-71
2023/12/09 05:53:12;;;;;;;15.85;9.35;;;;;;;;;;6099532;23;20077;-72
2023/12/09 05:55:39;;;;;;;16.80;10.60;;;;;;;;;;6125687;23;20010;-70
2023/12/09 05:58:05;;;;;;;16.02;9.57;;;;;;;;;;6124764;23;20061;-71
2023/12/09 06:00:32;;;;;;;14.52;8.82;;;;;;;;;;6124689;23;20074;-71
2023/12/09 06:02:58;;;;;;;20.60;10.95;;;;;;;;;;6125205;23;20010;-71
2023/12/09 06:05:24;;;;;;;19.35;10.88;;;;;;;;;;6123639;23;20076;-71
2023/12/09 06:07:50;;;;;;;16.42;10.20;;;;;;;;;;6123900;23;20013;-71
2023/12/09 06:10:16;;;;;;;20.05;9.77;;;;;;;;;;6123468;23;20496;-72
2023/12/09 06:12:42;;;;;;;20.75;10.25;;;;;;;;;;6125335;23;20014;-72
2023/12/09 06:15:08;;;;;;;26.27;10.75;;;;;;;;;;6124748;23;20017;-71
2023/12/09 06:17:34;;;;;;;20.90;10.73;;;;;;;;;;6124459;23;20010;-72
2023/12/09 06:20:00;;;;;;;17.90;10.07;;;;;;;;;;6125177;23;20010;-71
2023/12/09 06:22:26;;;;;;;23.20;9.77;;;;;;;;;;6125421;23;20009;-70
2023/12/09 06:24:52;;;;;;;26.20;10.20;;;;;;;;;;6125321;23;20084;-70
2023/12/09 06:27:18;;;;;;;35.55;12.20;;;;;;;;;;6125362;23;20085;-71
2023/12/09 06:29:47;;;;;;;29.80;10.93;;;;;;;;;;6124746;23;20010;-71
2023/12/09 06:32:13;;;;;;;25.50;9.85;;;;;;;;;;6125090;23;20021;-70
2023/12/09 06:34:39;;;;;;;24.65;9.85;;;;;;;;;;6126379;23;20010;-70
2023/12/09 06:37:05;;;;;;;23.75;10.43;;;;;;;;;;6125492;23;20017;-71
2023/12/09 06:39:32;;;;;;;36.17;11.90;;;;;;;;;;6124958;23;20049;-71
2023/12/09 06:41:58;;;;;;;39.97;12.13;;;;;;;;;;6124030;23;20383;-70
2023/12/09 06:44:24;;;;;;;24.00;10.32;;;;;;;;;;6124547;23;20041;-72
2023/12/09 06:46:49;;;;;;;25.20;10.85;;;;;;;;;;6125055;23;20085;-70
2023/12/09 06:49:17;;;;;;;16.75;10.02;;;;;;;;;;6124630;23;20091;-69
2023/12/09 06:51:43;;;;;;;16.52;9.75;;;;;;;;;;6124760;23;20101;-70
2023/12/09 06:54:10;;;;;;;17.23;9.57;;;;;;;;;;6124415;23;20044;-71
2023/12/09 06:56:36;;;;;;;27.70;10.98;;;;;;;;;;6124587;23;20016;-71
2023/12/09 06:59:02;;;;;;;17.40;9.10;;;;;;;;;;6124405;23;20080;-70
2023/12/09 07:01:28;;;;;;;18.08;10.20;;;;;;;;;;6125823;23;20017;-70
2023/12/09 07:03:54;;;;;;;21.20;10.68;;;;;;;;;;6125767;23;20090;-70
2023/12/09 07:06:22;;;;;;;24.95;11.48;;;;;;;;;;6124831;23;20029;-70
2023/12/09 07:08:48;;;;;;;16.65;10.05;;;;;;;;;;6124635;23;20325;-70
2023/12/09 07:11:16;;;;;;;21.20;10.18;;;;;;;;;;6124418;23;20020;-71
2023/12/09 07:13:41;;;;;;;16.15;9.85;;;;;;;;;;6125011;23;20045;-71
2023/12/09 07:16:09;;;;;;;17.80;10.00;;;;;;;;;;6125159;23;20352;-72
2023/12/09 07:18:42;;;;;;;25.35;11.02;;;;;;;;;;6124575;23;20014;-69
2023/12/09 07:21:09;;;;;;;14.65;9.52;;;;;;;;;;6124197;23;20057;-69
2023/12/09 07:23:35;;;;;;;21.40;10.15;;;;;;;;;;6123704;23;20017;-70
2023/12/09 07:26:02;;;;;;;22.20;11.70;;;;;;;;;;6124408;23;20042;-71
2023/12/09 07:28:29;;;;;;;20.23;9.35;;;;;;;;;;6123567;23;20025;-71
2023/12/09 07:30:55;;;;;;;18.10;8.93;;;;;;;;;;6124498;23;20009;-70
2023/12/09 07:33:21;;;;;;;24.65;9.40;;;;;;;;;;6124653;23;20350;-70
2023/12/09 07:35:47;;;;;;;12.15;8.13;;;;;;;;;;6124096;23;20060;-70
2023/12/09 07:38:13;;;;;;;20.45;9.65;;;;;;;;;;6123688;23;20009;-70
2023/12/09 07:40:39;;;;;;;18.52;8.77;;;;;;;;;;6123627;23;20013;-70
2023/12/09 07:43:04;;;;;;;18.10;8.68;;;;;;;;;;6124674;23;20028;-71
2023/12/09 07:45:30;;;;;;;20.25;9.27;;;;;;;;;;6124986;23;20005;-71
2023/12/09 07:47:56;;;;;;;21.45;8.85;;;;;;;;;;6124611;23;20017;-70
2023/12/09 07:50:22;;;;;;;15.98;8.63;;;;;;;;;;6097892;23;20097;-70
2023/12/09 07:52:48;;;;;;;28.15;9.82;;;;;;;;;;6124178;23;20139;-70
2023/12/09 07:55:15;;;;;;;17.05;8.93;;;;;;;;;;6124413;23;20024;-70
2023/12/09 07:57:41;;;;;;;22.25;8.85;;;;;;;;;;6123976;23;20010;-71
2023/12/09 08:00:08;;;;;;;22.38;9.32;;;;;;;;;;6124201;23;20028;-71
2023/12/09 08:02:34;;;;;;;13.95;8.43;;;;;;;;;;6123744;23;20010;-70
2023/12/09 08:04:59;;;;;;;24.45;9.77;;;;;;;;;;6098373;23;20329;-70
2023/12/09 08:07:25;;;;;;;45.40;15.50;;;;;;;;;;6123585;23;20008;-71
2023/12/09 08:13:38;;;;;;;24.15;10.15;;;;;;;;;;6124010;23;20040;-70
2023/12/09 08:16:05;;;;;;;15.82;9.32;;;;;;;;;;6124348;23;20010;-71
2023/12/09 08:18:31;;;;;;;18.83;8.30;;;;;;;;;;6123716;23;20121;-70
2023/12/09 08:20:56;;;;;;;14.10;8.52;;;;;;;;;;6124894;23;20013;-69
2023/12/09 08:23:22;;;;;;;19.83;9.07;;;;;;;;;;6124296;23;20270;-70
2023/12/09 08:25:49;;;;;;;14.57;8.30;;;;;;;;;;6124400;23;20018;-70
2023/12/09 08:28:14;;;;;;;17.80;9.88;;;;;;;;;;6123737;23;20455;-69
2023/12/09 08:37:53;;;;;;;18.27;10.10;;;;;;;;;;6121899;23;20036;-70
2023/12/09 08:40:18;;;;;;;13.88;7.75;;;;;;;;;;6123570;23;20349;-69
2023/12/09 08:42:45;;;;;;;11.52;7.38;;;;;;;;;;6123485;23;20013;-69
2023/12/09 08:45:20;;;;;;;12.10;7.03;;;;;;;;;;6123934;23;20010;-70
2023/12/09 08:47:46;;;;;;;18.48;7.85;;;;;;;;;;6124592;23;20413;-70
2023/12/09 08:50:13;;;;;;;15.18;8.38;;;;;;;;;;6123290;23;20017;-69
2023/12/09 08:52:39;;;;;;;14.93;8.10;;;;;;;;;;6121011;23;20036;-69
2023/12/09 08:55:06;;;;;;;15.35;8.25;;;;;;;;;;6123858;23;20006;-70
2023/12/09 08:57:31;;;;;;;11.90;7.57;;;;;;;;;;6123370;23;20432;-71
2023/12/09 08:59:57;;;;;;;12.68;8.60;;;;;;;;;;6123201;23;20022;-71
2023/12/09 09:02:24;;;;;;;13.90;8.00;;;;;;;;;;6097408;23;20017;-71
2023/12/09 09:04:50;;;;;;;20.75;8.80;;;;;;;;;;6124194;23;20020;-70
2023/12/09 09:07:15;;;;;;;16.60;7.90;;;;;;;;;;6122015;23;20344;-70
2023/12/09 09:09:41;;;;;;;16.45;8.45;;;;;;;;;;6098260;23;20475;-71
2023/12/09 09:12:07;;;;;;;11.60;6.97;;;;;;;;;;6122984;23;20048;-70
2023/12/09 09:14:36;;;;;;;12.18;6.72;;;;;;;;;;6123212;23;20014;-70
2023/12/09 09:17:05;;;;;;;23.05;10.15;;;;;;;;;;6124022;23;20009;-71
2023/12/09 09:19:31;;;;;;;10.38;6.18;;;;;;;;;;6125496;23;20101;-71
2023/12/09 09:21:57;;;;;;;14.82;6.95;;;;;;;;;;6125631;23;20468;-71
2023/12/09 09:24:23;;;;;;;11.63;7.60;;;;;;;;;;6125098;23;20105;-69
2023/12/09 09:26:49;;;;;;;10.63;6.35;;;;;;;;;;6126025;23;20411;-68
2023/12/09 09:29:15;;;;;;;9.18;5.97;;;;;;;;;;6125611;23;20012;-69
2023/12/09 09:31:40;;;;;;;15.80;6.88;;;;;;;;;;6125736;23;20337;-69
2023/12/09 09:34:06;;;;;;;12.63;6.90;;;;;;;;;;6125350;23;20449;-67
2023/12/09 09:36:32;;;;;;;9.65;6.20;;;;;;;;;;6125482;23;20108;-68
2023/12/09 09:38:58;;;;;;;10.98;6.90;;;;;;;;;;6125297;23;20102;-69
2023/12/09 09:41:53;;;;;;;11.10;7.07;;;;;;;;;;6125389;23;20041;-68
2023/12/09 09:44:22;;;;;;;17.02;7.72;;;;;;;;;;6123868;23;20014;-68
2023/12/09 09:46:52;;;;;;;18.30;7.82;;;;;;;;;;6125177;23;20094;-70
2023/12/09 09:49:20;;;;;;;14.30;8.27;;;;;;;;;;6125400;23;20085;-70
2023/12/09 09:51:51;;;;;;;10.25;6.18;;;;;;;;;;6124809;23;20041;-70
2023/12/09 09:54:21;;;;;;;12.15;7.57;;;;;;;;;;6125303;23;20014;-69
2023/12/09 09:56:51;;;;;;;12.77;6.35;;;;;;;;;;6125172;23;20061;-70
2023/12/09 09:59:18;;;;;;;9.05;6.13;;;;;;;;;;6125040;23;20037;-69
2023/12/09 10:01:44;;;;;;;12.15;6.63;;;;;;;;;;6125826;23;20017;-70
2023/12/09 10:04:13;;;;;;;10.35;6.35;;;;;;;;;;6127195;23;20010;-70
2023/12/09 10:06:41;;;;;;;12.20;7.03;;;;;;;;;;6126056;23;20042;-69
2023/12/09 10:09:07;;;;;;;13.98;7.82;;;;;;;;;;6125125;23;20089;-70
2023/12/09 10:11:33;;;;;;;13.07;7.32;;;;;;;;;;6125604;23;20037;-71
2023/12/09 10:13:59;;;;;;;19.20;7.45;;;;;;;;;;6125212;23;20466;-70
2023/12/09 10:16:24;;;;;;;12.93;6.97;;;;;;;;;;6124798;23;20021;-70
2023/12/09 10:18:50;;;;;;;10.70;6.55;;;;;;;;;;6125266;23;20045;-70
2023/12/09 10:21:16;;;;;;;13.45;6.28;;;;;;;;;;6099089;23;20006;-69
2023/12/09 10:23:45;;;;;;;11.45;7.45;;;;;;;;;;6125084;23;20006;-71
2023/12/09 10:26:13;;;;;;;10.95;6.55;;;;;;;;;;6125148;23;20101;-69
2023/12/09 10:28:39;;;;;;;9.88;6.30;;;;;;;;;;6124679;23;20401;-70
2023/12/09 10:31:07;;;;;;;8.30;5.85;;;;;;;;;;6125102;23;20076;-69
2023/12/09 10:33:34;;;;;;;15.35;6.65;;;;;;;;;;6125264;23;20010;-69
2023/12/09 10:36:01;;;;;;;11.38;5.97;;;;;;;;;;6123476;23;20480;-69
2023/12/09 10:38:27;;;;;;;10.05;5.75;;;;;;;;;;6124990;23;20009;-70
2023/12/09 10:40:53;;;;;;;10.80;6.47;;;;;;;;;;6125202;23;20017;-71
2023/12/09 10:43:23;;;;;;;18.70;7.70;;;;;;;;;;6124732;23;20014;-71
2023/12/09 10:45:50;;;;;;;12.80;6.90;;;;;;;;;;6125385;23;20061;-71
2023/12/09 10:48:16;;;;;;;15.02;7.32;;;;;;;;;;6124924;23;20006;-71
2023/12/09 10:50:45;;;;;;;13.07;5.95;;;;;;;;;;6124555;23;20348;-69
2023/12/09 10:53:10;;;;;;;14.18;7.95;;;;;;;;;;6098867;23;20032;-71
2023/12/09 10:55:36;;;;;;;11.02;7.00;;;;;;;;;;6125265;23;20491;-70
2023/12/09 10:58:06;;;;;;;10.95;6.53;;;;;;;;;;6124877;23;20018;-70
2023/12/09 11:00:36;;;;;;;10.63;6.75;;;;;;;;;;6124363;23;20079;-70
2023/12/09 11:03:02;;;;;;;10.98;6.60;;;;;;;;;;6122962;23;20017;-70
2023/12/09 11:05:29;;;;;;;8.20;6.05;;;;;;;;;;6124722;23;20068;-70
2023/12/09 11:07:57;;;;;;;12.40;7.60;;;;;;;;;;6124505;23;20018;-70
2023/12/09 11:10:23;;;;;;;16.35;7.47;;;;;;;;;;6123231;23;20037;-70
2023/12/09 11:12:49;;;;;;;11.95;7.05;;;;;;;;;;6124436;23;20018;-70
2023/12/09 11:15:19;;;;;;;15.45;8.02;;;;;;;;;;6098591;23;20017;-71
2023/12/09 11:17:49;;;;;;;12.27;7.43;;;;;;;;;;6098963;23;20014;-71
2023/12/09 11:20:18;;;;;;;11.88;6.53;;;;;;;;;;6124894;23;20073;-70
2023/12/09 11:22:45;;;;;;;16.95;8.48;;;;;;;;;;6124654;23;20056;-69
2023/12/09 11:25:19;;;;;;;16.05;8.60;;;;;;;;;;6123193;23;20479;-70
2023/12/09 11:27:48;;;;;;;17.80;9.63;;;;;;;;;;6123934;23;20010;-70
2023/12/09 11:30:34;;;;;;;11.98;7.40;;;;;;;;;;6097499;23;20417;-71
2023/12/09 11:33:01;;;;;;;12.20;7.07;;;;;;;;;;6098148;23;20064;-70
2023/12/09 11:35:28;;;;;;;11.98;7.88;;;;;;;;;;6123934;23;20048;-71
2023/12/09 11:37:56;;;;;;;10.13;6.75;;;;;;;;;;6122553;23;20077;-72
2023/12/09 11:40:22;;;;;;;13.40;7.32;;;;;;;;;;6124452;23;20214;-71
2023/12/09 11:42:50;;;;;;;14.52;7.80;;;;;;;;;;6123945;23;20487;-70
2023/12/09 11:45:15;;;;;;;18.25;7.45;;;;;;;;;;6124492;23;20021;-71
2023/12/09 11:47:42;;;;;;;12.90;7.55;;;;;;;;;;6124245;23;20437;-70
2023/12/09 11:50:08;;;;;;;17.33;8.32;;;;;;;;;;6124939;23;20010;-71
2023/12/09 11:52:35;;;;;;;18.75;7.72;;;;;;;;;;6125026;23;20013;-71
2023/12/09 11:55:02;;;;;;;17.77;8.00;;;;;;;;;;6123153;23;20014;-70
2023/12/09 11:57:31;;;;;;;16.40;8.77;;;;;;;;;;6124818;23;20013;-70
2023/12/09 11:59:57;;;;;;;14.55;7.68;;;;;;;;;;6124434;23;20013;-70
2023/12/09 12:02:23;;;;;;;13.95;7.47;;;;;;;;;;6124352;23;20017;-71
2023/12/09 12:04:50;;;;;;;9.20;6.40;;;;;;;;;;6124637;23;20010;-71
2023/12/09 12:07:16;;;;;;;13.05;7.32;;;;;;;;;;6124820;23;20108;-72
2023/12/09 12:09:41;;;;;;;14.93;8.30;;;;;;;;;;6123991;23;20013;-72
2023/12/09 12:12:08;;;;;;;11.50;7.28;;;;;;;;;;6123400;23;20080;-71
2023/12/09 12:14:35;;;;;;;12.30;7.40;;;;;;;;;;6123791;23;20010;-70
2023/12/09 12:17:01;;;;;;;12.90;7.45;;;;;;;;;;6124866;23;20009;-70
2023/12/09 12:19:29;;;;;;;10.57;7.00;;;;;;;;;;6125019;23;20010;-71
2023/12/09 12:21:55;;;;;;;24.00;9.23;;;;;;;;;;6126198;23;20018;-71
2023/12/09 12:24:21;;;;;;;17.95;8.27;;;;;;;;;;6128539;23;20012;-74
2023/12/09 12:26:47;;;;;;;15.68;8.05;;;;;;;;;;6100252;23;20628;-73
2023/12/09 12:29:20;;;;;;;17.77;7.95;;;;;;;;;;6124650;23;20389;-70
2023/12/09 12:31:49;;;;;;;17.02;8.45;;;;;;;;;;6123126;23;20018;-71
2023/12/09 12:34:19;;;;;;;28.40;9.02;;;;;;;;;;6098518;23;20049;-71
2023/12/09 12:36:47;;;;;;;11.68;7.13;;;;;;;;;;6123983;23;20010;-71
2023/12/09 12:39:13;;;;;;;20.05;8.10;;;;;;;;;;6124418;23;20347;-68
2023/12/09 12:41:39;;;;;;;9.20;6.22;;;;;;;;;;6124313;23;20017;-71
2023/12/09 12:44:05;;;;;;;12.32;7.25;;;;;;;;;;6122631;23;20503;-69
2023/12/09 12:46:32;;;;;;;9.85;6.25;;;;;;;;;;6122636;23;20010;-71
2023/12/09 12:48:58;;;;;;;29.27;9.95;;;;;;;;;;6124756;23;20073;-69
2023/12/09 12:51:25;;;;;;;25.63;12.07;;;;;;;;;;6122254;23;20341;-71
2023/12/09 12:53:51;;;;;;;29.55;15.52;;;;;;;;;;6125258;23;20006;-73
2023/12/09 12:56:17;;;;;;;30.40;15.65;;;;;;;;;;6126129;23;20369;-71
2023/12/09 12:58:43;;;;;;;38.25;14.02;;;;;;;;;;6125589;23;20014;-74
2023/12/09 13:01:10;;;;;;;11.13;7.07;;;;;;;;;;6100664;23;20017;-73
2023/12/09 13:03:35;;;;;;;19.67;8.38;;;;;;;;;;6126076;23;20065;-74
2023/12/09 13:06:04;;;;;;;15.55;8.98;;;;;;;;;;6126098;23;20018;-74
2023/12/09 13:08:31;;;;;;;12.45;7.32;;;;;;;;;;6125719;23;20459;-72
2023/12/09 13:10:57;;;;;;;19.35;7.97;;;;;;;;;;6126153;23;20085;-72
2023/12/09 13:13:23;;;;;;;10.27;6.70;;;;;;;;;;6125593;23;20006;-71
2023/12/09 13:15:50;;;;;;;19.40;8.65;;;;;;;;;;6125977;23;20022;-73
2023/12/09 13:18:17;;;;;;;12.15;7.15;;;;;;;;;;6125853;23;20129;-72
2023/12/09 13:20:45;;;;;;;10.60;6.63;;;;;;;;;;6125169;23;20014;-73
2023/12/09 13:23:12;;;;;;;15.82;7.30;;;;;;;;;;6125005;23;20012;-71
2023/12/09 13:25:37;;;;;;;22.17;8.48;;;;;;;;;;6126024;23;20247;-73
2023/12/09 13:28:03;;;;;;;10.82;6.18;;;;;;;;;;6125401;23;20385;-72
2023/12/09 13:30:29;;;;;;;13.80;5.90;;;;;;;;;;6099396;23;20038;-73
2023/12/09 13:33:02;;;;;;;11.02;6.05;;;;;;;;;;6125889;23;20021;-69
2023/12/09 13:35:28;;;;;;;13.60;6.47;;;;;;;;;;6125529;23;20017;-71
2023/12/09 13:37:55;;;;;;;18.05;8.52;;;;;;;;;;6121417;23;20393;-69
2023/12/09 13:40:21;;;;;;;17.73;10.60;;;;;;;;;;6124915;23;20411;-70
2023/12/09 13:42:51;;;;;;;21.75;8.88;;;;;;;;;;6123260;23;20030;-69
2023/12/09 13:45:17;;;;;;;32.38;16.80;;;;;;;;;;6125403;23;20017;-70
2023/12/09 13:47:46;;;;;;;17.58;8.95;;;;;;;;;;6124802;23;20014;-70
2023/12/09 13:50:12;;;;;;;17.85;8.00;;;;;;;;;;6123460;23;20033;-69
2023/12/09 13:52:38;;;;;;;16.30;9.48;;;;;;;;;;6123703;23;20071;-70
2023/12/09 13:55:05;;;;;;;21.08;9.20;;;;;;;;;;6124855;23;20071;-70
2023/12/09 13:57:32;;;;;;;15.07;7.82;;;;;;;;;;6124674;23;20278;-71
2023/12/09 14:00:00;;;;;;;15.77;8.90;;;;;;;;;;6123622;23;20280;-71
2023/12/09 14:02:26;;;;;;;14.93;8.77;;;;;;;;;;6124155;23;20117;-70
2023/12/09 14:04:52;;;;;;;23.25;10.13;;;;;;;;;;6124351;23;20453;-71
2023/12/09 14:07:18;;;;;;;21.95;8.40;;;;;;;;;;6124853;23;20042;-72
2023/12/09 14:09:45;;;;;;;15.25;8.48;;;;;;;;;;6121149;23;20010;-71
2023/12/09 14:12:11;;;;;;;15.10;8.10;;;;;;;;;;6121375;23;20111;-72
2023/12/09 14:14:37;;;;;;;12.07;7.57;;;;;;;;;;6123830;23;20010;-73
2023/12/09 14:17:05;;;;;;;22.70;10.88;;;;;;;;;;6099433;23;20017;-72
2023/12/09 14:19:31;;;;;;;14.52;7.95;;;;;;;;;;6124938;23;20436;-71
2023/12/09 14:21:57;;;;;;;16.02;8.98;;;;;;;;;;6098986;23;20047;-72
2023/12/09 14:24:23;;;;;;;27.85;12.85;;;;;;;;;;6102175;23;20045;-70
2023/12/09 14:26:49;;;;;;;34.95;16.40;;;;;;;;;;6093493;23;20405;-72
2023/12/09 14:29:15;;;;;;;22.25;9.35;;;;;;;;;;6095533;23;20021;-71
2023/12/09 14:31:42;;;;;;;20.58;7.97;;;;;;;;;;6093022;23;20437;-71
2023/12/09 14:34:08;;;;;;;22.15;8.55;;;;;;;;;;6094688;23;20467;-71
2023/12/09 14:36:34;;;;;;;20.98;8.85;;;;;;;;;;6095803;23;20010;-71